Home   Weather   New Paris   Past weeks
Flag for USA

Past Weather in New Paris, Pennsylvania, USA — Yesterday and Last 2 Weeks

Currently: 81 °F. Scattered clouds. (Weather station: Bedford County Airport, USA). See more current weather

Past Weather in New Paris — Graph

°F

New Paris Temperature Yesterday

Maximum temperature yesterday: 74 °F (at 3:35 pm)
Minimum temperature yesterday: 40 °F (at 5:35 am)
Average temperature yesterday: 59 °F

High & Low Weather Summary for the Past Weeks

 TemperatureHumidityPressure
High89 °F (Jun 6, 4:15 pm)98% (Jun 3, 8:55 pm)30.16 "Hg (Jun 3, 8:55 pm)
Low40 °F (Jun 17, 5:35 am)25% (Jun 17, 11:55 am)29.76 "Hg (Jun 14, 4:55 pm)
Average68 °F78%29.99 "Hg
* Reported Jun 3 1:15 pm — Jun 18 1:35 pm, New Paris. Weather by CustomWeather, © 2021

Note: Actual official high and low records may vary slightly from our data, if they occured in-between our weather recording intervals... More about our weather records

New Paris Weather History for the Previous 24 Hours

Scroll right to see more
 ConditionsComfort  
Time TempWeatherWind HumidityBarometerVisibility
1:35 pm
Fri, Jun 18
81 °FPartly sunny.13 mph41%30.00 "Hg10 mi
1:15 pm81 °FBroken clouds.9 mph43%30.01 "Hg10 mi
12:55 pm82 °FScattered clouds.13 mph41%30.02 "Hg10 mi
12:35 pm82 °FScattered clouds.8 mph43%30.03 "Hg10 mi
12:15 pm80 °FSunny.7 mph43%30.04 "Hg10 mi
11:55 am79 °FSunny.5 mph44%30.04 "Hg10 mi
11:35 am77 °FScattered clouds.5 mph44%30.04 "Hg10 mi
11:15 am76 °FScattered clouds.5 mph46%30.04 "Hg10 mi
10:55 am74 °FSunny.No wind48%30.04 "Hg10 mi
10:35 am71 °FSunny.3 mph53%30.05 "Hg10 mi
10:15 am69 °FSunny.No wind55%30.05 "Hg10 mi
9:55 am66 °FScattered clouds.3 mph59%30.05 "Hg10 mi
9:35 am65 °FScattered clouds.No wind57%30.07 "Hg10 mi
9:15 am63 °FSunny.3 mph62%30.07 "Hg10 mi
8:55 am62 °FSunny.No wind62%30.08 "Hg10 mi
8:15 am55 °FSunny.No wind88%30.07 "Hg10 mi
7:55 am54 °FSunny.No wind91%30.07 "Hg10 mi
7:35 am53 °FScattered clouds.No wind89%30.07 "Hg10 mi
6:35 am46 °FScattered clouds.No wind97%30.09 "Hg10 mi
6:15 am45 °FSunny.No wind97%30.09 "Hg10 mi
5:55 am45 °FSunny.No wind97%30.08 "Hg10 mi
5:35 am46 °FClear.No wind98%30.08 "Hg10 mi
5:15 am45 °FClear.No wind97%30.08 "Hg10 mi
4:55 am45 °FClear.No wind97%30.09 "Hg10 mi
4:35 am46 °FClear.No wind97%30.10 "Hg10 mi
4:15 am46 °FClear.No wind97%30.09 "Hg10 mi
3:55 am46 °FClear.No wind97%30.08 "Hg10 mi
3:35 am47 °FClear.No wind97%30.08 "Hg10 mi
3:15 am47 °FClear.No wind97%30.08 "Hg10 mi
2:55 am47 °FClear.No wind97%30.08 "Hg10 mi
2:35 am47 °FClear.No wind97%30.08 "Hg10 mi
2:15 am48 °FClear.No wind97%30.09 "Hg10 mi
1:55 am49 °FClear.No wind97%30.09 "Hg10 mi
1:35 am49 °FClear.No wind97%30.09 "Hg10 mi
12:55 am50 °FClear.No wind97%30.09 "Hg10 mi
12:35 am50 °FClear.No wind97%30.09 "Hg10 mi
12:15 am51 °FClear.No wind95%30.10 "Hg10 mi
11:55 pm
Thu, Jun 17
52 °FClear.No wind94%30.09 "Hg10 mi
11:35 pm52 °FClear.No wind93%30.08 "Hg10 mi
11:15 pm54 °FClear.No wind80%30.08 "Hg10 mi
10:35 pm56 °FClear.No wind77%30.08 "Hg10 mi
10:15 pm56 °FClear.No wind73%30.07 "Hg10 mi
9:55 pm57 °FClear.No wind74%30.06 "Hg10 mi
9:35 pm59 °FClear.No wind66%30.06 "Hg10 mi
9:15 pm60 °FClear.No wind68%30.05 "Hg10 mi
8:55 pm62 °FClear.No wind63%30.05 "Hg10 mi
8:15 pm69 °FSunny.3 mph43%30.05 "Hg10 mi
7:55 pm70 °FSunny.3 mph39%30.04 "Hg10 mi
7:35 pm71 °FSunny.8 mph36%30.04 "Hg10 mi
7:15 pm72 °FSunny.6 mph37%30.04 "Hg10 mi
6:55 pm73 °FScattered clouds.9 mph34%30.04 "Hg10 mi
6:35 pm73 °FSunny.5 mph32%30.03 "Hg10 mi
6:15 pm74 °FSunny.8 mph31%30.02 "Hg10 mi
5:55 pm74 °FSunny.8 mph29%30.02 "Hg10 mi
5:35 pm74 °FSunny.6 mph27%30.03 "Hg10 mi
5:15 pm74 °FScattered clouds.5 mph30%30.03 "Hg10 mi
4:55 pm74 °FScattered clouds.7 mph29%30.03 "Hg10 mi
4:35 pm74 °FSunny.12 mph29%30.03 "Hg10 mi
4:15 pm74 °FSunny.9 mph28%30.04 "Hg10 mi
3:55 pm74 °FSunny.12 mph26%30.04 "Hg10 mi
3:35 pm74 °FSunny.6 mph30%30.04 "Hg10 mi
3:15 pm74 °FSunny.8 mph28%30.05 "Hg10 mi
2:15 pm72 °FSunny.10 mph27%30.06 "Hg10 mi
Weather by CustomWeather, © 2021

See weather overview